Terminal Aerodrome Forecast
Issued by NWS

Home | Current Version | Previous Version | Text Only | Print | Product List | Glossary On
Versions: 1 2 3 4 5 6 7 8 9 10 11 12 13 14 15 16 17 18 19 20 21 22
000
FTUS43 KICT 281736
TAFCNU
TAF
KCNU 281736Z 2818/2918 17011KT P6SM VCTS BKN035CB OVC060
      TEMPO 2818/2820 4SM -TSRA BKN012CB OVC035
     FM282300 16007KT P6SM BKN035 OVC080
     FM291000 18011KT P6SM VCTS BKN035 OVC080CB=

USA.gov is the U.S. government's official web portal to all federal, state and local government web resources and services.